Latest Weather Observations for Eliwana Airport

IDW60801

Issued at 7:53 pm WST Thursday 18 July 2024 (issued every 10 minutes, with the page automatically refreshed every 10 minutes)

About weather observations | Map of weather stations | Latest weather observations for WA | Other Formats
Station Details ID: 505063 Name: ELIWANA AIRPORT Lat: -22.43 Lon: 116.89 Height: 481.07 m
Data from the previous 72 hours. | See also: Recent months for locations in Western Australia
Date/Time
WST
Temp
°C
App
Temp
°C
Dew
Point
°C
Rel
Hum
%
Delta-T
°C
Wind Press
QNH
hPa
Press
MSL
hPa
Rain since
9am
mm
Dir  Spd
km/h
Gust
km/h
Spd
kts
Gust
kts
18/07:30pm 21.2 18.6 9.4 47 6.5 WNW 13 20 7 11 1019.3 - 0.0
18/07:00pm 22.0 18.5 8.9 43 7.1 WNW 17 22 9 12 1018.9 - 0.0
18/06:30pm 22.5 19.0 8.6 41 7.5 WNW 17 22 9 12 1018.5 - 0.0
18/06:00pm 23.5 19.5 9.1 40 7.9 WNW 20 28 11 15 1018.3 - 0.0
18/05:30pm 24.2 20.3 9.4 39 8.2 NW 20 28 11 15 1018.1 - 0.0
18/05:00pm 24.7 20.8 9.4 38 8.5 NW 20 33 11 18 1018.0 - 0.0
18/04:30pm 25.3 20.2 9.2 36 9.0 NW 26 39 14 21 1018.0 - 0.0
18/04:00pm 25.3 19.7 8.7 35 9.2 NNW 28 41 15 22 1017.9 - 0.0
18/03:30pm 25.7 20.1 8.7 34 9.4 NNW 28 39 15 21 1017.9 - 0.0
18/03:00pm 26.0 20.9 7.6 31 10.0 NNW 24 35 13 19 1017.9 - 0.0
18/02:30pm 26.2 20.7 7.7 31 10.1 NNW 26 43 14 23 1018.1 - 0.0
18/02:00pm 25.8 19.0 4.9 26 10.8 NNW 30 44 16 24 1018.4 - 0.0
18/01:30pm 25.6 18.5 3.6 24 11.1 NNW 30 48 16 26 1018.8 - 0.0
18/01:27pm 25.7 19.0 3.6 24 11.2 NNW 28 48 15 26 1018.7 - 0.0
18/01:00pm 25.4 19.9 4.0 25 10.9 NNW 22 32 12 17 1019.2 - 0.0
18/12:30pm 25.3 19.3 3.3 24 11.0 NNW 24 39 13 21 1019.7 - 0.0
18/12:00pm 24.6 19.0 3.3 25 10.6 N 22 37 12 20 1020.3 - 0.0
18/11:30am 24.1 18.7 2.3 24 10.7 N 20 33 11 18 1020.5 - 0.0
18/11:00am 24.2 19.4 2.4 24 10.7 N 17 24 9 13 1020.9 - 0.0
18/10:30am 23.2 18.4 2.7 26 10.0 NNE 17 24 9 13 1021.4 - 0.0
18/10:00am 22.5 17.2 3.1 28 9.5 NNE 20 28 11 15 1021.3 - 0.0
18/09:30am 21.2 16.1 1.0 26 9.4 NE 17 22 9 12 1021.1 - 0.0
18/09:00am 20.7 16.0 1.1 27 9.1 NE 15 22 8 12 1021.0 - 0.0
18/08:30am 17.5 15.1 2.3 36 7.1 ESE 4 9 2 5 1020.8 - 0.0
18/08:00am 15.0 12.9 1.9 41 5.9 SSE 2 4 1 2 1020.7 - 0.0
18/07:30am 13.2 10.3 1.5 45 5.2 SSE 6 6 3 3 1020.5 - 0.0
18/07:00am 11.6 9.5 1.5 50 4.4 S 2 4 1 2 1020.3 - 0.0
18/06:30am 11.0 8.9 1.5 52 4.1 SSE 2 6 1 3 1020.0 - 0.0
18/06:00am 11.5 8.6 1.5 50 4.3 SE 6 7 3 4 1019.7 - 0.0
18/05:30am 11.5 8.6 1.5 50 4.3 SE 6 7 3 4 1019.5 - 0.0
18/05:00am 11.7 8.8 1.6 50 4.4 ESE 6 7 3 4 1019.2 - 0.0
18/04:30am 12.2 8.7 1.2 47 4.8 ESE 9 9 5 5 1019.4 - 0.0
18/04:00am 12.3 9.4 1.3 47 4.8 ESE 6 7 3 4 1019.6 - 0.0
18/03:30am 12.3 9.4 1.3 47 4.8 ESE 6 7 3 4 1019.6 - 0.0
18/03:00am 12.4 9.4 1.1 46 4.9 ESE 6 6 3 3 1019.8 - 0.0
18/02:30am 12.7 9.6 1.1 45 5.1 E 7 9 4 5 1019.7 - 0.0
18/02:00am 12.8 9.3 1.2 45 5.1 SE 9 11 5 6 1019.9 - 0.0
18/01:30am 13.7 10.5 1.0 42 5.6 E 7 7 4 4 1020.2 - 0.0
18/01:00am 15.3 11.7 0.7 37 6.4 SE 9 9 5 5 1020.3 - 0.0
18/12:30am 14.8 11.8 1.0 39 6.1 SSE 6 7 3 4 1020.5 - 0.0
18/12:00am 14.6 11.6 0.8 39 6.1 SE 6 9 3 5 1020.6 - 0.0
 
Date/Time
WST
Temp
°C
App
Temp
°C
Dew
Point
°C
Rel
Hum
%
Delta-T
°C
Wind Press
QNH
hPa
Press
MSL
hPa
Rain since
9am
mm
Dir  Spd
km/h
Gust
km/h
Spd
kts
Gust
kts
17/11:30pm 14.9 12.2 0.4 37 6.3 ESE 4 6 2 3 1020.7 - 0.0
17/11:00pm 15.2 12.2 0.6 37 6.4 ESE 6 11 3 6 1021.0 - 0.0
17/10:30pm 16.0 12.3 0.2 34 7.0 ESE 9 11 5 6 1021.1 - 0.0
17/10:00pm 16.3 13.0 0.4 34 7.0 E 7 9 4 5 1021.3 - 0.0
17/09:30pm 16.6 13.3 0.3 33 7.2 ESE 7 9 4 5 1021.4 - 0.0
17/09:00pm 16.7 13.6 0.4 33 7.2 E 6 7 3 4 1021.1 - 0.0
17/08:30pm 18.6 15.4 -0.2 28 8.4 NE 6 7 3 4 1021.0 - 0.0
17/08:00pm 20.5 17.1 -0.7 24 9.5 NNE 7 11 4 6 1020.9 - 0.0
17/07:30pm 20.7 17.3 -0.6 24 9.6 NNE 7 9 4 5 1020.6 - 0.0
17/07:00pm 21.6 17.8 -1.0 22 10.2 N 9 13 5 7 1020.3 - 0.0
17/06:30pm 22.1 18.2 -1.2 21 10.5 N 9 15 5 8 1020.0 - 0.0
17/06:00pm 23.0 18.4 -1.1 20 10.9 N 13 17 7 9 1019.9 - 0.0
17/05:30pm 24.1 19.0 -1.7 18 11.7 N 15 19 8 10 1019.8 - 0.0
17/05:00pm 24.7 20.0 -2.0 17 12.1 N 13 19 7 10 1019.6 - 0.0
17/04:30pm 25.3 21.0 -1.5 17 12.3 N 11 17 6 9 1019.4 - 0.0
17/04:00pm 25.0 19.6 -1.7 17 12.2 NNE 17 24 9 13 1019.2 - 0.0
17/03:30pm 24.7 20.0 -2.0 17 12.1 NE 13 19 7 10 1019.3 - 0.0
17/03:00pm 24.9 20.1 -2.6 16 12.3 NNE 13 26 7 14 1019.2 - 0.0
17/02:30pm 24.9 19.4 -1.8 17 12.2 NNE 17 24 9 13 1019.3 - 0.0
17/02:00pm 24.6 19.5 -2.0 17 12.0 NE 15 24 8 13 1019.4 - 0.0
17/01:30pm 24.4 19.2 -3.0 16 12.2 NNE 15 26 8 14 1019.8 - 0.0
17/01:00pm 24.1 17.9 -3.3 16 12.0 N 20 26 11 14 1020.2 - 0.0
17/12:30pm 23.2 17.1 -2.4 18 11.4 NE 20 30 11 16 1020.8 - 0.0
17/12:00pm 23.0 17.1 -2.6 18 11.3 NNE 19 32 10 17 1021.5 - 0.0
17/11:30am 22.8 16.8 -2.7 18 11.2 ENE 19 32 10 17 1022.0 - 0.0
17/11:00am 22.2 15.3 -2.5 19 10.8 NNE 24 37 13 20 1022.6 - 0.0
17/10:30am 20.8 15.4 -1.7 22 9.9 ENE 17 26 9 14 1022.8 - 0.0
17/10:00am 20.0 15.3 -1.7 23 9.5 ENE 13 20 7 11 1023.1 - 0.0
17/09:30am 19.4 14.0 -1.1 25 9.0 ENE 17 22 9 12 1023.0 - 0.0
17/09:00am 18.2 14.4 -1.1 27 8.4 ENE 9 13 5 7 1022.9 - 0.0
17/08:30am 16.6 12.8 -1.0 30 7.6 E 9 15 5 8 1022.6 - 0.0
17/08:00am 15.5 11.3 -0.7 33 6.9 E 11 17 6 9 1022.3 - 0.0
17/07:30am 14.2 9.7 -0.6 36 6.3 ENE 13 13 7 7 1021.8 - 0.0
17/07:00am 13.8 9.2 -1.0 36 6.2 E 13 24 7 13 1021.3 - 0.0
17/06:30am 12.2 8.8 -0.6 41 5.3 ESE 7 9 4 5 1020.9 - 0.0
17/06:00am 12.2 7.7 -0.6 41 5.3 ESE 13 17 7 9 1020.8 - 0.0
17/05:30am 12.9 8.3 -0.7 39 5.7 E 13 17 7 9 1020.5 - 0.0
17/05:00am 13.2 8.6 -0.8 38 5.9 E 13 17 7 9 1020.3 - 0.0
17/04:30am 13.6 9.4 -1.2 36 6.2 E 11 15 6 8 1020.2 - 0.0
17/04:00am 14.3 9.3 -0.9 35 6.4 E 15 17 8 9 1020.3 - 0.0
17/03:30am 14.3 9.3 -0.9 35 6.4 E 15 19 8 10 1020.3 - 0.0
17/03:00am 13.5 9.7 -0.9 37 6.0 E 9 11 5 6 1020.7 - 0.0
17/02:30am 13.1 9.3 -0.9 38 5.9 E 9 11 5 6 1020.7 - 0.0
17/02:00am 14.4 10.2 -0.8 35 6.4 E 11 11 6 6 1021.0 - 0.0
17/01:30am 13.7 10.4 0.0 39 5.9 E 7 9 4 5 1021.4 - 0.0
17/01:00am 14.6 10.9 0.1 37 6.3 E 9 11 5 6 1021.5 - 0.0
17/12:30am 15.9 11.8 0.1 34 6.9 E 11 13 6 7 1021.9 - 0.0
17/12:00am 15.8 11.4 0.4 35 6.8 ESE 13 15 7 8 1022.0 - 0.0
 
Date/Time
WST
Temp
°C
App
Temp
°C
Dew
Point
°C
Rel
Hum
%
Delta-T
°C
Wind Press
QNH
hPa
Press
MSL
hPa
Rain since
9am
mm
Dir  Spd
km/h
Gust
km/h
Spd
kts
Gust
kts
16/11:30pm 16.5 12.5 0.6 34 7.1 E 11 13 6 7 1022.2 - 0.0
16/11:00pm 16.3 12.0 0.8 35 6.9 E 13 15 7 8 1022.3 - 0.0
16/10:30pm 16.8 13.2 0.9 34 7.1 ESE 9 11 5 6 1022.4 - 0.0
16/10:00pm 17.5 13.9 0.6 32 7.6 ESE 9 13 5 7 1022.4 - 0.0
16/09:30pm 18.4 14.1 1.0 31 7.9 ESE 13 15 7 8 1022.3 - 0.0
16/09:00pm 19.1 15.1 0.7 29 8.4 E 11 13 6 7 1022.2 - 0.0
16/08:30pm 18.3 14.4 0.9 31 7.9 ESE 11 11 6 6 1021.9 - 0.0
16/08:00pm 20.1 16.1 0.5 27 9.0 ESE 11 15 6 8 1021.5 - 0.0
16/07:30pm 20.1 16.9 0.5 27 9.0 ESE 7 9 4 5 1021.1 - 0.0
16/07:00pm 20.9 17.7 0.7 26 9.3 ESE 7 7 4 4 1020.9 - 0.0
16/06:30pm 21.9 18.8 0.4 24 10.0 E 6 7 3 4 1020.6 - 0.0
16/06:00pm 23.8 20.1 0.2 21 11.0 E 9 11 5 6 1020.2 - 0.0
16/05:30pm 24.9 20.8 -0.3 19 11.8 ENE 11 15 6 8 1019.9 - 0.0
16/05:00pm 25.7 21.7 0.4 19 12.0 NE 11 17 6 9 1019.8 - 0.0
16/04:30pm 26.0 21.5 -0.1 18 12.4 E 13 20 7 11 1019.6 - 0.0
16/04:00pm 26.1 21.0 0.7 19 12.2 ENE 17 22 9 12 1019.5 - 0.0
16/03:30pm 25.7 21.7 0.4 19 12.1 NE 11 22 6 12 1019.5 - 0.0
16/03:00pm 25.8 22.3 1.2 20 11.9 E 9 15 5 8 1019.4 - 0.0
16/02:30pm 25.9 22.3 0.5 19 12.2 ENE 9 19 5 10 1019.5 - 0.0
16/02:00pm 25.2 21.6 0.7 20 11.7 E 9 20 5 11 1019.7 - 0.0
16/01:30pm 25.4 21.4 0.8 20 11.8 E 11 22 6 12 1020.0 - 0.0
16/01:00pm 25.4 20.7 0.8 20 11.8 E 15 22 8 12 1020.2 - 0.0
16/12:30pm 25.4 20.3 0.8 20 11.8 ENE 17 28 9 15 1020.7 - 0.0
16/12:00pm 24.8 19.4 1.0 21 11.4 ENE 19 26 10 14 1021.4 - 0.0
16/11:30am 24.5 18.5 0.8 21 11.3 ENE 22 32 12 17 1022.0 - 0.0
16/11:00am 23.7 16.9 0.7 22 10.8 ENE 26 33 14 18 1022.4 - 0.0
16/10:30am 23.1 16.7 0.9 23 10.5 NE 24 32 13 17 1022.6 - 0.0
16/10:00am 22.5 15.3 0.9 24 10.1 E 28 35 15 19 1022.7 - 0.0
16/09:30am 21.3 14.1 1.0 26 9.5 ENE 28 35 15 19 1022.8 - 0.0
16/09:00am 19.5 14.2 2.8 33 7.9 E 20 24 11 13 1022.8 - 0.0
16/08:30am 18.0 13.3 3.1 37 7.1 E 17 24 9 13 1022.4 - 0.0
16/08:00am 16.8 12.2 3.8 42 6.2 E 17 20 9 11 1022.0 - 0.0
16/07:30am 14.9 10.0 4.0 48 5.1 E 19 20 10 11 1021.3 - 0.0
16/07:00am 14.1 9.1 3.8 50 4.8 ESE 19 20 10 11 1020.8 - 0.0
16/06:30am 14.6 10.0 3.7 48 5.1 E 17 19 9 10 1020.5 - 0.0
16/06:00am 15.2 10.9 3.4 45 5.5 E 15 15 8 8 1020.4 - 0.0
16/05:30am 14.8 10.9 3.3 46 5.3 ESE 13 15 7 8 1020.1 - 0.0
16/05:00am 15.4 11.8 3.2 44 5.7 E 11 15 6 8 1019.8 - 0.0
16/04:30am 14.9 11.4 3.4 46 5.4 E 11 13 6 7 1019.6 - 0.0
16/04:00am 14.8 11.6 3.3 46 5.3 E 9 11 5 6 1019.4 - 0.0
16/03:30am 14.6 11.8 3.4 47 5.2 E 7 9 4 5 1019.5 - 0.0
16/03:00am 14.8 11.6 3.3 46 5.3 E 9 9 5 5 1019.4 - 0.0
16/02:30am 14.7 11.5 3.2 46 5.3 ESE 9 9 5 5 1019.5 - 0.0
16/02:00am 15.7 12.5 3.2 43 5.8 E 9 11 5 6 1019.6 - 0.0
16/01:30am 15.9 12.7 3.0 42 6.0 E 9 11 5 6 1019.7 - 0.0
16/01:00am 16.2 13.0 2.9 41 6.2 ESE 9 11 5 6 1019.7 - 0.0
16/12:30am 15.9 12.7 3.0 42 6.0 ESE 9 11 5 6 1019.7 - 0.0
16/12:00am 18.1 14.5 2.8 36 7.2 E 11 11 6 6 1019.8 - 0.0
 
Date/Time
WST
Temp
°C
App
Temp
°C
Dew
Point
°C
Rel
Hum
%
Delta-T
°C
Wind Press
QNH
hPa
Press
MSL
hPa
Rain since
9am
mm
Dir  Spd
km/h
Gust
km/h
Spd
kts
Gust
kts
15/11:30pm 18.8 14.8 2.6 34 7.7 ENE 13 17 7 9 1019.9 - 0.0
15/11:00pm 19.0 16.1 2.4 33 7.8 ENE 7 13 4 7 1019.9 - 0.0
15/10:30pm 18.9 15.2 2.3 33 7.8 ENE 11 15 6 8 1020.0 - 0.0
15/10:00pm 19.7 16.8 2.6 32 8.1 NE 7 11 4 6 1019.9 - 0.0
15/09:30pm 20.1 17.4 2.5 31 8.4 E 6 7 3 4 1019.8 - 0.0
15/09:00pm 19.9 18.0 2.7 32 8.2 SSW 2 6 1 3 1019.8 - 0.0
15/08:30pm 21.0 18.0 2.3 29 8.9 E 7 11 4 6 1019.6 - 0.0
15/08:00pm 21.6 18.8 2.3 28 9.2 ESE 6 9 3 5 1019.4 - 0.0

Other formats

Comma delimited format used in spreadsheet applications
http://www.bom.gov.au/fwo/IDW60801/IDW60801.99593.axf

JavaScript Object Notation format (JSON) in row-major order
http://www.bom.gov.au/fwo/IDW60801/IDW60801.99593.json

Data quality

Most of these data are generated automatically and are frequently updated. Quality checks on data are not normally performed. It is possible for incorrect values to appear. Refer to information at About Latest Weather Observations and please check the disclaimer before using these data.